sensor_id;sensor_type;location;lat;lon;timestamp;temperature;humidity
31542;DHT22;18152;49.986;8.646;2022-09-03T00:02:04;16.60;80.00
31542;DHT22;18152;49.986;8.646;2022-09-03T00:07:25;16.60;78.10
31542;DHT22;18152;49.986;8.646;2022-09-03T00:09:59;16.50;89.60
31542;DHT22;18152;49.986;8.646;2022-09-03T00:12:28;16.40;87.20
31542;DHT22;18152;49.986;8.646;2022-09-03T00:15:10;16.20;90.20
31542;DHT22;18152;49.986;8.646;2022-09-03T00:17:53;16.00;88.30
31542;DHT22;18152;49.986;8.646;2022-09-03T00:20:40;15.90;89.10
31542;DHT22;18152;49.986;8.646;2022-09-03T00:23:13;15.70;90.20
31542;DHT22;18152;49.986;8.646;2022-09-03T00:28:12;15.50;90.60
31542;DHT22;18152;49.986;8.646;2022-09-03T00:30:40;15.60;91.50
31542;DHT22;18152;49.986;8.646;2022-09-03T00:33:14;15.40;90.80
31542;DHT22;18152;49.986;8.646;2022-09-03T00:38:30;15.40;93.70
31542;DHT22;18152;49.986;8.646;2022-09-03T00:57:45;15.10;99.90
31542;DHT22;18152;49.986;8.646;2022-09-03T01:00:17;15.00;99.90
31542;DHT22;18152;49.986;8.646;2022-09-03T01:05:26;14.90;99.90
31542;DHT22;18152;49.986;8.646;2022-09-03T01:10:45;14.80;99.90
31542;DHT22;18152;49.986;8.646;2022-09-03T01:18:50;14.60;99.90
31542;DHT22;18152;49.986;8.646;2022-09-03T01:21:45;14.50;99.90
31542;DHT22;18152;49.986;8.646;2022-09-03T01:30:20;14.50;99.90
31542;DHT22;18152;49.986;8.646;2022-09-03T01:35:42;14.50;99.90
31542;DHT22;18152;49.986;8.646;2022-09-03T01:41:24;14.50;99.90
31542;DHT22;18152;49.986;8.646;2022-09-03T01:46:40;14.60;99.90
31542;DHT22;18152;49.986;8.646;2022-09-03T01:51:41;14.80;97.70
31542;DHT22;18152;49.986;8.646;2022-09-03T02:02:34;15.40;97.30
31542;DHT22;18152;49.986;8.646;2022-09-03T02:05:09;15.60;95.50
31542;DHT22;18152;49.986;8.646;2022-09-03T02:07:46;15.60;98.40
31542;DHT22;18152;49.986;8.646;2022-09-03T02:10:18;15.60;98.50
31542;DHT22;18152;49.986;8.646;2022-09-03T02:12:51;15.60;98.50
31542;DHT22;18152;49.986;8.646;2022-09-03T02:15:20;15.60;99.80
31542;DHT22;18152;49.986;8.646;2022-09-03T02:17:47;15.60;99.90
31542;DHT22;18152;49.986;8.646;2022-09-03T02:20:19;15.60;99.90
31542;DHT22;18152;49.986;8.646;2022-09-03T02:22:47;15.50;99.90
31542;DHT22;18152;49.986;8.646;2022-09-03T02:25:14;15.40;99.90
31542;DHT22;18152;49.986;8.646;2022-09-03T02:27:40;15.40;99.90
31542;DHT22;18152;49.986;8.646;2022-09-03T02:30:07;15.40;99.90
31542;DHT22;18152;49.986;8.646;2022-09-03T02:32:33;15.30;99.90
31542;DHT22;18152;49.986;8.646;2022-09-03T02:34:58;15.40;99.90
31542;DHT22;18152;49.986;8.646;2022-09-03T02:37:24;15.40;99.90
31542;DHT22;18152;49.986;8.646;2022-09-03T02:39:50;15.40;99.90
31542;DHT22;18152;49.986;8.646;2022-09-03T02:42:17;15.40;99.90
31542;DHT22;18152;49.986;8.646;2022-09-03T02:45:18;15.40;99.90
31542;DHT22;18152;49.986;8.646;2022-09-03T02:47:46;15.40;99.90
31542;DHT22;18152;49.986;8.646;2022-09-03T02:50:14;15.40;99.90
31542;DHT22;18152;49.986;8.646;2022-09-03T02:52:40;15.50;99.90
31542;DHT22;18152;49.986;8.646;2022-09-03T02:55:06;15.50;99.90
31542;DHT22;18152;49.986;8.646;2022-09-03T02:57:31;15.50;99.90
31542;DHT22;18152;49.986;8.646;2022-09-03T02:59:57;15.50;99.90
31542;DHT22;18152;49.986;8.646;2022-09-03T03:02:23;15.60;99.90
31542;DHT22;18152;49.986;8.646;2022-09-03T03:04:48;15.60;99.90
31542;DHT22;18152;49.986;8.646;2022-09-03T03:07:14;15.60;99.90
31542;DHT22;18152;49.986;8.646;2022-09-03T03:09:39;15.60;99.90
31542;DHT22;18152;49.986;8.646;2022-09-03T03:12:05;15.60;99.90
31542;DHT22;18152;49.986;8.646;2022-09-03T03:14:31;15.60;99.90
31542;DHT22;18152;49.986;8.646;2022-09-03T03:16:57;15.60;99.90
31542;DHT22;18152;49.986;8.646;2022-09-03T03:19:22;15.60;99.90
31542;DHT22;18152;49.986;8.646;2022-09-03T03:21:48;15.60;99.90
31542;DHT22;18152;49.986;8.646;2022-09-03T03:24:13;15.60;99.90
31542;DHT22;18152;49.986;8.646;2022-09-03T03:26:39;15.60;99.90
31542;DHT22;18152;49.986;8.646;2022-09-03T03:29:05;15.70;99.90
31542;DHT22;18152;49.986;8.646;2022-09-03T03:31:32;15.70;99.90
31542;DHT22;18152;49.986;8.646;2022-09-03T03:34:00;15.70;99.90
31542;DHT22;18152;49.986;8.646;2022-09-03T03:36:29;15.70;99.90
31542;DHT22;18152;49.986;8.646;2022-09-03T03:38:56;15.70;99.90
31542;DHT22;18152;49.986;8.646;2022-09-03T03:41:24;15.70;99.90
31542;DHT22;18152;49.986;8.646;2022-09-03T03:43:54;15.80;99.90
31542;DHT22;18152;49.986;8.646;2022-09-03T03:46:21;15.70;99.90
31542;DHT22;18152;49.986;8.646;2022-09-03T03:48:48;15.70;99.90
31542;DHT22;18152;49.986;8.646;2022-09-03T03:51:14;15.70;99.90
31542;DHT22;18152;49.986;8.646;2022-09-03T03:53:40;15.70;99.90
31542;DHT22;18152;49.986;8.646;2022-09-03T03:56:08;15.80;99.90
31542;DHT22;18152;49.986;8.646;2022-09-03T03:58:34;15.80;99.90
31542;DHT22;18152;49.986;8.646;2022-09-03T04:01:06;15.80;99.90
31542;DHT22;18152;49.986;8.646;2022-09-03T04:03:32;15.80;99.90
31542;DHT22;18152;49.986;8.646;2022-09-03T04:05:58;15.90;99.70
31542;DHT22;18152;49.986;8.646;2022-09-03T04:08:26;15.90;99.90
31542;DHT22;18152;49.986;8.646;2022-09-03T04:10:52;15.90;99.90
31542;DHT22;18152;49.986;8.646;2022-09-03T04:13:17;16.00;99.90
31542;DHT22;18152;49.986;8.646;2022-09-03T04:15:46;15.90;99.90
31542;DHT22;18152;49.986;8.646;2022-09-03T04:18:11;16.00;99.90
31542;DHT22;18152;49.986;8.646;2022-09-03T04:20:37;16.00;99.80
31542;DHT22;18152;49.986;8.646;2022-09-03T04:23:04;16.10;98.20
31542;DHT22;18152;49.986;8.646;2022-09-03T04:25:30;16.10;98.40
31542;DHT22;18152;49.986;8.646;2022-09-03T04:27:56;16.10;99.80
31542;DHT22;18152;49.986;8.646;2022-09-03T04:30:22;16.20;97.50
31542;DHT22;18152;49.986;8.646;2022-09-03T04:32:51;16.20;99.10
31542;DHT22;18152;49.986;8.646;2022-09-03T04:35:21;16.30;97.60
31542;DHT22;18152;49.986;8.646;2022-09-03T04:37:47;16.30;98.00
31542;DHT22;18152;49.986;8.646;2022-09-03T04:40:13;16.30;97.20
31542;DHT22;18152;49.986;8.646;2022-09-03T04:42:39;16.30;96.70
31542;DHT22;18152;49.986;8.646;2022-09-03T04:45:05;16.40;99.10
31542;DHT22;18152;49.986;8.646;2022-09-03T04:47:33;16.30;97.00
31542;DHT22;18152;49.986;8.646;2022-09-03T04:50:02;16.30;97.90
31542;DHT22;18152;49.986;8.646;2022-09-03T04:52:28;16.30;97.60
31542;DHT22;18152;49.986;8.646;2022-09-03T04:54:56;16.30;98.60
31542;DHT22;18152;49.986;8.646;2022-09-03T04:57:22;16.40;98.50
31542;DHT22;18152;49.986;8.646;2022-09-03T04:59:47;16.40;98.00
31542;DHT22;18152;49.986;8.646;2022-09-03T05:02:13;16.40;96.80
31542;DHT22;18152;49.986;8.646;2022-09-03T05:04:40;16.40;99.90
31542;DHT22;18152;49.986;8.646;2022-09-03T05:07:05;16.40;96.80
31542;DHT22;18152;49.986;8.646;2022-09-03T05:09:31;16.40;97.10
31542;DHT22;18152;49.986;8.646;2022-09-03T05:11:56;16.40;98.00
31542;DHT22;18152;49.986;8.646;2022-09-03T05:14:22;16.40;98.40
31542;DHT22;18152;49.986;8.646;2022-09-03T05:16:47;16.40;97.60
31542;DHT22;18152;49.986;8.646;2022-09-03T05:19:14;16.40;97.70
31542;DHT22;18152;49.986;8.646;2022-09-03T05:21:40;16.40;96.90
31542;DHT22;18152;49.986;8.646;2022-09-03T05:24:07;16.40;97.20
31542;DHT22;18152;49.986;8.646;2022-09-03T05:26:36;16.50;97.30
31542;DHT22;18152;49.986;8.646;2022-09-03T05:29:03;16.40;97.50
31542;DHT22;18152;49.986;8.646;2022-09-03T05:31:34;16.50;97.80
31542;DHT22;18152;49.986;8.646;2022-09-03T05:34:02;16.50;97.20
31542;DHT22;18152;49.986;8.646;2022-09-03T05:36:31;16.40;98.80
31542;DHT22;18152;49.986;8.646;2022-09-03T05:38:57;16.40;97.90
31542;DHT22;18152;49.986;8.646;2022-09-03T05:41:23;16.40;98.00
31542;DHT22;18152;49.986;8.646;2022-09-03T05:43:51;16.40;97.20
31542;DHT22;18152;49.986;8.646;2022-09-03T05:46:21;16.50;97.80
31542;DHT22;18152;49.986;8.646;2022-09-03T05:48:54;16.40;97.80
31542;DHT22;18152;49.986;8.646;2022-09-03T05:51:20;16.40;97.90
31542;DHT22;18152;49.986;8.646;2022-09-03T05:53:47;16.40;99.30
31542;DHT22;18152;49.986;8.646;2022-09-03T05:56:18;16.40;99.90
31542;DHT22;18152;49.986;8.646;2022-09-03T05:58:46;16.40;97.80
31542;DHT22;18152;49.986;8.646;2022-09-03T06:01:14;16.30;97.40
31542;DHT22;18152;49.986;8.646;2022-09-03T06:03:40;16.40;98.70
31542;DHT22;18152;49.986;8.646;2022-09-03T06:06:06;16.40;97.50
31542;DHT22;18152;49.986;8.646;2022-09-03T06:08:33;16.40;99.00
31542;DHT22;18152;49.986;8.646;2022-09-03T06:11:00;16.40;98.60
31542;DHT22;18152;49.986;8.646;2022-09-03T06:13:27;16.30;98.30
31542;DHT22;18152;49.986;8.646;2022-09-03T06:15:57;16.30;99.90
31542;DHT22;18152;49.986;8.646;2022-09-03T06:18:24;16.30;98.40
31542;DHT22;18152;49.986;8.646;2022-09-03T06:20:57;16.40;97.90
31542;DHT22;18152;49.986;8.646;2022-09-03T06:23:23;16.40;99.90
31542;DHT22;18152;49.986;8.646;2022-09-03T06:28:27;16.40;98.60
31542;DHT22;18152;49.986;8.646;2022-09-03T06:30:56;16.40;98.80
31542;DHT22;18152;49.986;8.646;2022-09-03T06:33:21;16.40;99.80
31542;DHT22;18152;49.986;8.646;2022-09-03T06:35:54;16.40;99.30
31542;DHT22;18152;49.986;8.646;2022-09-03T06:38:25;16.40;98.40
31542;DHT22;18152;49.986;8.646;2022-09-03T06:40:55;16.30;98.50
31542;DHT22;18152;49.986;8.646;2022-09-03T06:43:22;16.40;98.90
31542;DHT22;18152;49.986;8.646;2022-09-03T06:45:57;16.30;99.20
31542;DHT22;18152;49.986;8.646;2022-09-03T06:48:24;16.30;98.50
31542;DHT22;18152;49.986;8.646;2022-09-03T06:50:58;16.30;99.40
31542;DHT22;18152;49.986;8.646;2022-09-03T06:53:25;16.30;99.90
31542;DHT22;18152;49.986;8.646;2022-09-03T06:56:14;16.20;99.90
31542;DHT22;18152;49.986;8.646;2022-09-03T06:58:43;16.10;99.90
31542;DHT22;18152;49.986;8.646;2022-09-03T07:01:11;15.90;99.90
31542;DHT22;18152;49.986;8.646;2022-09-03T07:03:38;15.80;99.90
31542;DHT22;18152;49.986;8.646;2022-09-03T07:06:09;15.70;99.90
31542;DHT22;18152;49.986;8.646;2022-09-03T07:08:35;15.60;99.90
31542;DHT22;18152;49.986;8.646;2022-09-03T07:11:02;15.50;99.90
31542;DHT22;18152;49.986;8.646;2022-09-03T07:13:30;15.50;99.90
31542;DHT22;18152;49.986;8.646;2022-09-03T07:16:03;15.50;99.90
31542;DHT22;18152;49.986;8.646;2022-09-03T07:18:30;15.50;99.90
31542;DHT22;18152;49.986;8.646;2022-09-03T07:21:00;15.50;99.90
31542;DHT22;18152;49.986;8.646;2022-09-03T07:23:27;15.40;99.90
31542;DHT22;18152;49.986;8.646;2022-09-03T07:25:54;15.40;99.90
31542;DHT22;18152;49.986;8.646;2022-09-03T07:28:20;15.40;99.90
31542;DHT22;18152;49.986;8.646;2022-09-03T07:30:46;15.40;99.90
31542;DHT22;18152;49.986;8.646;2022-09-03T07:33:11;15.40;99.90
31542;DHT22;18152;49.986;8.646;2022-09-03T07:35:37;15.50;99.90
31542;DHT22;18152;49.986;8.646;2022-09-03T07:38:03;15.40;99.90
31542;DHT22;18152;49.986;8.646;2022-09-03T07:40:28;15.40;99.90
31542;DHT22;18152;49.986;8.646;2022-09-03T07:42:57;15.50;99.90
31542;DHT22;18152;49.986;8.646;2022-09-03T07:45:30;15.50;99.90
31542;DHT22;18152;49.986;8.646;2022-09-03T07:47:56;15.50;99.90
31542;DHT22;18152;49.986;8.646;2022-09-03T07:50:23;15.50;99.90
31542;DHT22;18152;49.986;8.646;2022-09-03T07:52:48;15.50;99.90
31542;DHT22;18152;49.986;8.646;2022-09-03T07:55:14;15.40;99.90
31542;DHT22;18152;49.986;8.646;2022-09-03T07:57:40;15.40;99.90
31542;DHT22;18152;49.986;8.646;2022-09-03T08:00:06;15.30;99.90
31542;DHT22;18152;49.986;8.646;2022-09-03T08:02:33;15.20;99.90
31542;DHT22;18152;49.986;8.646;2022-09-03T08:04:59;15.20;99.90
31542;DHT22;18152;49.986;8.646;2022-09-03T08:07:27;15.00;99.90
31542;DHT22;18152;49.986;8.646;2022-09-03T08:09:53;14.80;99.90
31542;DHT22;18152;49.986;8.646;2022-09-03T08:12:19;14.70;99.90
31542;DHT22;18152;49.986;8.646;2022-09-03T08:14:44;14.70;99.90
31542;DHT22;18152;49.986;8.646;2022-09-03T08:17:10;14.50;99.90
31542;DHT22;18152;49.986;8.646;2022-09-03T08:19:37;14.40;99.90
31542;DHT22;18152;49.986;8.646;2022-09-03T08:22:02;14.30;99.90
31542;DHT22;18152;49.986;8.646;2022-09-03T08:24:28;14.20;99.90
31542;DHT22;18152;49.986;8.646;2022-09-03T08:26:53;14.30;99.90
31542;DHT22;18152;49.986;8.646;2022-09-03T08:29:19;14.30;99.90
31542;DHT22;18152;49.986;8.646;2022-09-03T08:31:45;14.20;99.90
31542;DHT22;18152;49.986;8.646;2022-09-03T08:34:10;14.30;99.90
31542;DHT22;18152;49.986;8.646;2022-09-03T08:36:39;14.30;99.90
31542;DHT22;18152;49.986;8.646;2022-09-03T08:39:07;14.50;99.90
31542;DHT22;18152;49.986;8.646;2022-09-03T08:54:46;15.30;99.90
31542;DHT22;18152;49.986;8.646;2022-09-03T08:57:13;15.50;99.90
31542;DHT22;18152;49.986;8.646;2022-09-03T08:59:43;15.70;99.90
31542;DHT22;18152;49.986;8.646;2022-09-03T09:02:34;16.00;99.90
31542;DHT22;18152;49.986;8.646;2022-09-03T09:07:36;16.60;99.90
31542;DHT22;18152;49.986;8.646;2022-09-03T09:10:13;16.60;99.90
31542;DHT22;18152;49.986;8.646;2022-09-03T09:12:50;16.50;99.90
31542;DHT22;18152;49.986;8.646;2022-09-03T09:15:40;16.10;99.90
31542;DHT22;18152;49.986;8.646;2022-09-03T09:21:08;16.50;99.90
31542;DHT22;18152;49.986;8.646;2022-09-03T09:23:42;16.50;99.90
31542;DHT22;18152;49.986;8.646;2022-09-03T09:28:45;16.50;99.90
31542;DHT22;18152;49.986;8.646;2022-09-03T09:31:14;16.30;99.90
31542;DHT22;18152;49.986;8.646;2022-09-03T09:33:43;16.20;99.90
31542;DHT22;18152;49.986;8.646;2022-09-03T09:36:12;16.20;99.90
31542;DHT22;18152;49.986;8.646;2022-09-03T09:38:41;16.10;99.90
31542;DHT22;18152;49.986;8.646;2022-09-03T09:43:39;16.20;99.90
31542;DHT22;18152;49.986;8.646;2022-09-03T09:48:56;16.30;99.90
31542;DHT22;18152;49.986;8.646;2022-09-03T09:51:24;16.60;99.90
31542;DHT22;18152;49.986;8.646;2022-09-03T09:54:14;16.90;99.90
31542;DHT22;18152;49.986;8.646;2022-09-03T09:56:45;16.90;99.90
31542;DHT22;18152;49.986;8.646;2022-09-03T09:59:13;16.90;99.90
31542;DHT22;18152;49.986;8.646;2022-09-03T10:01:44;17.00;99.90
31542;DHT22;18152;49.986;8.646;2022-09-03T10:04:29;17.10;99.90
31542;DHT22;18152;49.986;8.646;2022-09-03T10:09:44;16.90;99.90
31542;DHT22;18152;49.986;8.646;2022-09-03T10:12:14;17.00;99.90
31542;DHT22;18152;49.986;8.646;2022-09-03T10:23:02;17.40;99.90
31542;DHT22;18152;49.986;8.646;2022-09-03T10:25:50;17.70;99.90
31542;DHT22;18152;49.986;8.646;2022-09-03T10:28:20;17.80;99.90
31542;DHT22;18152;49.986;8.646;2022-09-03T10:33:40;17.70;99.90
31542;DHT22;18152;49.986;8.646;2022-09-03T10:39:12;17.50;99.90
31542;DHT22;18152;49.986;8.646;2022-09-03T10:52:37;17.80;99.90
31542;DHT22;18152;49.986;8.646;2022-09-03T10:56:06;17.80;99.90
31542;DHT22;18152;49.986;8.646;2022-09-03T11:01:00;17.80;99.90
31542;DHT22;18152;49.986;8.646;2022-09-03T11:03:50;17.80;99.90
31542;DHT22;18152;49.986;8.646;2022-09-03T11:11:30;17.90;99.90
31542;DHT22;18152;49.986;8.646;2022-09-03T11:14:08;17.90;99.90
31542;DHT22;18152;49.986;8.646;2022-09-03T11:16:44;18.00;99.90
31542;DHT22;18152;49.986;8.646;2022-09-03T11:19:15;18.20;99.90
31542;DHT22;18152;49.986;8.646;2022-09-03T11:21:42;18.40;99.90
31542;DHT22;18152;49.986;8.646;2022-09-03T11:24:25;19.00;99.90
31542;DHT22;18152;49.986;8.646;2022-09-03T11:30:11;19.50;99.90
31542;DHT22;18152;49.986;8.646;2022-09-03T11:32:46;20.10;99.90
31542;DHT22;18152;49.986;8.646;2022-09-03T11:35:23;20.70;99.90
31542;DHT22;18152;49.986;8.646;2022-09-03T11:38:01;21.00;99.90
31542;DHT22;18152;49.986;8.646;2022-09-03T11:40:57;21.20;99.90
31542;DHT22;18152;49.986;8.646;2022-09-03T11:48:44;21.80;99.90
31542;DHT22;18152;49.986;8.646;2022-09-03T11:54:05;22.50;99.90
31542;DHT22;18152;49.986;8.646;2022-09-03T11:56:32;22.80;99.90
31542;DHT22;18152;49.986;8.646;2022-09-03T11:59:21;22.50;99.90
31542;DHT22;18152;49.986;8.646;2022-09-03T12:01:51;22.20;99.90
31542;DHT22;18152;49.986;8.646;2022-09-03T12:04:24;21.90;99.90
31542;DHT22;18152;49.986;8.646;2022-09-03T12:12:55;22.70;99.90
31542;DHT22;18152;49.986;8.646;2022-09-03T12:15:59;23.20;99.90
31542;DHT22;18152;49.986;8.646;2022-09-03T12:18:31;22.90;99.90
31542;DHT22;18152;49.986;8.646;2022-09-03T12:23:39;23.10;99.90
31542;DHT22;18152;49.986;8.646;2022-09-03T12:26:21;23.20;99.90
31542;DHT22;18152;49.986;8.646;2022-09-03T12:28:56;23.50;99.90
31542;DHT22;18152;49.986;8.646;2022-09-03T12:31:25;23.80;99.90
31542;DHT22;18152;49.986;8.646;2022-09-03T12:34:02;23.60;99.90
31542;DHT22;18152;49.986;8.646;2022-09-03T12:36:42;23.20;99.90
31542;DHT22;18152;49.986;8.646;2022-09-03T12:39:16;23.10;99.90
31542;DHT22;18152;49.986;8.646;2022-09-03T12:41:56;23.50;99.90
31542;DHT22;18152;49.986;8.646;2022-09-03T12:44:29;23.00;99.90
31542;DHT22;18152;49.986;8.646;2022-09-03T12:47:19;22.40;99.90
31542;DHT22;18152;49.986;8.646;2022-09-03T12:49:47;22.20;99.90
31542;DHT22;18152;49.986;8.646;2022-09-03T12:52:40;22.00;99.90
31542;DHT22;18152;49.986;8.646;2022-09-03T12:58:37;21.60;99.90
31542;DHT22;18152;49.986;8.646;2022-09-03T13:00:46;21.60;99.90
31542;DHT22;18152;49.986;8.646;2022-09-03T13:05:51;21.60;99.90
31542;DHT22;18152;49.986;8.646;2022-09-03T13:08:31;21.70;99.90
31542;DHT22;18152;49.986;8.646;2022-09-03T13:10:59;21.80;99.90
31542;DHT22;18152;49.986;8.646;2022-09-03T13:13:29;21.90;99.90
31542;DHT22;18152;49.986;8.646;2022-09-03T13:43:50;23.80;99.90
31542;DHT22;18152;49.986;8.646;2022-09-03T13:45:56;23.60;99.90
31542;DHT22;18152;49.986;8.646;2022-09-03T13:48:31;23.40;99.90
31542;DHT22;18152;49.986;8.646;2022-09-03T13:54:06;22.90;99.90
31542;DHT22;18152;49.986;8.646;2022-09-03T13:57:00;22.50;99.90
31542;DHT22;18152;49.986;8.646;2022-09-03T14:05:30;21.90;99.90
31542;DHT22;18152;49.986;8.646;2022-09-03T14:08:08;21.70;99.90
31542;DHT22;18152;49.986;8.646;2022-09-03T14:11:13;21.70;99.90
31542;DHT22;18152;49.986;8.646;2022-09-03T14:16:52;21.40;99.90
31542;DHT22;18152;49.986;8.646;2022-09-03T14:19:42;21.20;99.90
31542;DHT22;18152;49.986;8.646;2022-09-03T14:22:25;21.10;99.90
31542;DHT22;18152;49.986;8.646;2022-09-03T14:25:02;21.10;99.90
31542;DHT22;18152;49.986;8.646;2022-09-03T14:27:31;21.00;99.90
31542;DHT22;18152;49.986;8.646;2022-09-03T14:33:04;21.10;99.90
31542;DHT22;18152;49.986;8.646;2022-09-03T14:41:21;21.10;99.90
31542;DHT22;18152;49.986;8.646;2022-09-03T14:49:45;21.30;99.90
31542;DHT22;18152;49.986;8.646;2022-09-03T14:52:50;21.30;99.90
31542;DHT22;18152;49.986;8.646;2022-09-03T15:03:20;21.10;99.90
31542;DHT22;18152;49.986;8.646;2022-09-03T15:08:53;20.90;99.90
31542;DHT22;18152;49.986;8.646;2022-09-03T15:11:28;20.90;99.90
31542;DHT22;18152;49.986;8.646;2022-09-03T15:14:07;21.00;99.90
31542;DHT22;18152;49.986;8.646;2022-09-03T15:16:37;21.20;99.90
31542;DHT22;18152;49.986;8.646;2022-09-03T15:21:56;21.10;99.90
31542;DHT22;18152;49.986;8.646;2022-09-03T15:24:52;21.10;99.90
31542;DHT22;18152;49.986;8.646;2022-09-03T15:30:07;21.30;99.90
31542;DHT22;18152;49.986;8.646;2022-09-03T15:38:28;20.90;99.90
31542;DHT22;18152;49.986;8.646;2022-09-03T15:40:56;20.80;99.90
31542;DHT22;18152;49.986;8.646;2022-09-03T15:43:28;20.80;99.90
31542;DHT22;18152;49.986;8.646;2022-09-03T15:46:00;20.80;99.90
31542;DHT22;18152;49.986;8.646;2022-09-03T15:48:32;20.80;99.90
31542;DHT22;18152;49.986;8.646;2022-09-03T15:53:55;20.70;99.90
31542;DHT22;18152;49.986;8.646;2022-09-03T15:56:27;20.60;99.90
31542;DHT22;18152;49.986;8.646;2022-09-03T15:59:11;20.50;99.90
31542;DHT22;18152;49.986;8.646;2022-09-03T16:01:47;20.40;99.90
31542;DHT22;18152;49.986;8.646;2022-09-03T16:06:53;20.40;99.90
31542;DHT22;18152;49.986;8.646;2022-09-03T16:09:47;20.30;99.90
31542;DHT22;18152;49.986;8.646;2022-09-03T16:15:03;20.30;99.90
31542;DHT22;18152;49.986;8.646;2022-09-03T16:17:49;20.30;99.90
31542;DHT22;18152;49.986;8.646;2022-09-03T16:23:06;20.20;99.90
31542;DHT22;18152;49.986;8.646;2022-09-03T16:28:36;20.20;99.90
31542;DHT22;18152;49.986;8.646;2022-09-03T16:31:10;20.20;99.90
31542;DHT22;18152;49.986;8.646;2022-09-03T16:38:48;20.10;99.90
31542;DHT22;18152;49.986;8.646;2022-09-03T16:46:52;20.00;99.90
31542;DHT22;18152;49.986;8.646;2022-09-03T16:49:46;20.00;99.90
31542;DHT22;18152;49.986;8.646;2022-09-03T16:52:27;20.10;99.90
31542;DHT22;18152;49.986;8.646;2022-09-03T16:58:04;20.00;99.90
31542;DHT22;18152;49.986;8.646;2022-09-03T17:06:34;19.90;99.90
31542;DHT22;18152;49.986;8.646;2022-09-03T17:14:59;19.80;99.90
31542;DHT22;18152;49.986;8.646;2022-09-03T17:17:34;19.70;99.90
31542;DHT22;18152;49.986;8.646;2022-09-03T17:20:36;19.60;99.90
31542;DHT22;18152;49.986;8.646;2022-09-03T17:25:56;19.40;99.90
31542;DHT22;18152;49.986;8.646;2022-09-03T17:28:52;19.40;99.90
31542;DHT22;18152;49.986;8.646;2022-09-03T17:34:10;19.20;99.90
31542;DHT22;18152;49.986;8.646;2022-09-03T17:36:51;19.10;99.90
31542;DHT22;18152;49.986;8.646;2022-09-03T17:41:54;19.00;99.90
31542;DHT22;18152;49.986;8.646;2022-09-03T17:50:23;18.50;99.90
31542;DHT22;18152;49.986;8.646;2022-09-03T17:58:02;18.30;99.90
31542;DHT22;18152;49.986;8.646;2022-09-03T18:00:51;18.20;99.90
31542;DHT22;18152;49.986;8.646;2022-09-03T18:03:38;18.10;99.90
31542;DHT22;18152;49.986;8.646;2022-09-03T18:06:11;18.00;99.90
31542;DHT22;18152;49.986;8.646;2022-09-03T18:11:26;17.90;99.90
31542;DHT22;18152;49.986;8.646;2022-09-03T18:16:53;17.80;99.90
31542;DHT22;18152;49.986;8.646;2022-09-03T18:19:37;17.80;99.90
31542;DHT22;18152;49.986;8.646;2022-09-03T18:22:29;17.80;99.90
31542;DHT22;18152;49.986;8.646;2022-09-03T18:25:14;17.80;99.90
31542;DHT22;18152;49.986;8.646;2022-09-03T18:28:03;17.70;99.90
31542;DHT22;18152;49.986;8.646;2022-09-03T18:30:48;17.60;99.90
31542;DHT22;18152;49.986;8.646;2022-09-03T18:33:32;17.60;99.90
31542;DHT22;18152;49.986;8.646;2022-09-03T18:36:16;17.50;99.90
31542;DHT22;18152;49.986;8.646;2022-09-03T18:39:14;17.40;99.90
31542;DHT22;18152;49.986;8.646;2022-09-03T18:45:11;17.30;99.90
31542;DHT22;18152;49.986;8.646;2022-09-03T18:56:44;17.10;99.90
31542;DHT22;18152;49.986;8.646;2022-09-03T19:00:01;17.00;99.90
31542;DHT22;18152;49.986;8.646;2022-09-03T19:06:02;17.00;99.90
31542;DHT22;18152;49.986;8.646;2022-09-03T19:09:09;17.00;99.90
31542;DHT22;18152;49.986;8.646;2022-09-03T19:15:31;16.80;99.90
31542;DHT22;18152;49.986;8.646;2022-09-03T19:22:07;16.70;99.90
31542;DHT22;18152;49.986;8.646;2022-09-03T19:24:59;16.70;99.90
31542;DHT22;18152;49.986;8.646;2022-09-03T19:40:43;16.40;99.90
31542;DHT22;18152;49.986;8.646;2022-09-03T19:46:57;16.40;99.90
31542;DHT22;18152;49.986;8.646;2022-09-03T19:50:03;16.30;99.90
31542;DHT22;18152;49.986;8.646;2022-09-03T19:53:04;16.30;99.90
31542;DHT22;18152;49.986;8.646;2022-09-03T19:55:53;16.10;99.90
31542;DHT22;18152;49.986;8.646;2022-09-03T19:58:44;16.00;99.90
31542;DHT22;18152;49.986;8.646;2022-09-03T20:01:35;16.10;99.90
31542;DHT22;18152;49.986;8.646;2022-09-03T20:04:26;16.00;99.90
31542;DHT22;18152;49.986;8.646;2022-09-03T20:07:11;16.00;99.90
31542;DHT22;18152;49.986;8.646;2022-09-03T20:09:57;16.00;99.90
31542;DHT22;18152;49.986;8.646;2022-09-03T20:15:15;15.90;99.90
31542;DHT22;18152;49.986;8.646;2022-09-03T20:18:05;15.90;99.90
31542;DHT22;18152;49.986;8.646;2022-09-03T20:20:54;15.80;99.90
31542;DHT22;18152;49.986;8.646;2022-09-03T20:23:29;15.70;99.90
31542;DHT22;18152;49.986;8.646;2022-09-03T20:28:34;15.70;99.90
31542;DHT22;18152;49.986;8.646;2022-09-03T20:31:09;15.70;99.90
31542;DHT22;18152;49.986;8.646;2022-09-03T20:41:57;15.40;99.90
31542;DHT22;18152;49.986;8.646;2022-09-03T20:44:52;15.40;99.90
31542;DHT22;18152;49.986;8.646;2022-09-03T20:47:38;15.40;99.90
31542;DHT22;18152;49.986;8.646;2022-09-03T20:55:39;15.30;99.90
31542;DHT22;18152;49.986;8.646;2022-09-03T20:58:37;15.20;99.90
31542;DHT22;18152;49.986;8.646;2022-09-03T21:01:19;15.20;99.90
31542;DHT22;18152;49.986;8.646;2022-09-03T21:06:46;15.10;99.90
31542;DHT22;18152;49.986;8.646;2022-09-03T21:09:29;15.10;99.90
31542;DHT22;18152;49.986;8.646;2022-09-03T21:12:18;15.00;99.90
31542;DHT22;18152;49.986;8.646;2022-09-03T21:15:13;15.00;99.90
31542;DHT22;18152;49.986;8.646;2022-09-03T21:17:45;14.90;99.90
31542;DHT22;18152;49.986;8.646;2022-09-03T21:23:04;14.90;99.90
31542;DHT22;18152;49.986;8.646;2022-09-03T21:25:37;14.80;99.90
31542;DHT22;18152;49.986;8.646;2022-09-03T21:31:00;14.80;99.90
31542;DHT22;18152;49.986;8.646;2022-09-03T21:33:38;14.70;99.90
31542;DHT22;18152;49.986;8.646;2022-09-03T21:36:33;14.70;99.90
31542;DHT22;18152;49.986;8.646;2022-09-03T21:39:08;14.70;99.90
31542;DHT22;18152;49.986;8.646;2022-09-03T21:47:00;14.60;99.90
31542;DHT22;18152;49.986;8.646;2022-09-03T21:52:54;14.50;99.90
31542;DHT22;18152;49.986;8.646;2022-09-03T21:55:27;14.50;99.90
31542;DHT22;18152;49.986;8.646;2022-09-03T22:01:07;14.50;99.90
31542;DHT22;18152;49.986;8.646;2022-09-03T22:03:35;14.40;99.90
31542;DHT22;18152;49.986;8.646;2022-09-03T22:06:13;14.50;99.90
31542;DHT22;18152;49.986;8.646;2022-09-03T22:09:01;14.50;99.90
31542;DHT22;18152;49.986;8.646;2022-09-03T22:11:37;14.40;99.90
31542;DHT22;18152;49.986;8.646;2022-09-03T22:14:14;14.30;99.90
31542;DHT22;18152;49.986;8.646;2022-09-03T22:17:25;14.30;99.90
31542;DHT22;18152;49.986;8.646;2022-09-03T22:19:55;14.30;99.90
31542;DHT22;18152;49.986;8.646;2022-09-03T22:22:31;14.20;99.90